Time;durP1;ratioP1;P1;durP2;ratioP2;P2;SDS_P1;SDS_P2;PMS_P1;PMS_P2;Temp;Humidity;BMP_temperature;BMP_pressure;BME280_temperature;BME280_humidity;BME280_pressure;Samples;Min_cycle;Max_cycle;Signal;HPM_P1;HPM_P2
2022/11/18 00:01:13;;;;;;;18.90;13.40;;;1.60;97.30;;;;;;5092566;28;20282;-84
2022/11/18 00:03:41;;;;;;;19.37;12.93;;;1.60;65.60;;;;;;5092712;28;20191;-84
2022/11/18 00:06:11;;;;;;;22.93;12.97;;;1.60;12.40;;;;;;5092444;28;20202;-84
2022/11/18 00:08:38;;;;;;;18.30;12.57;;;1.60;6.60;;;;;;5091858;28;20558;-84
2022/11/18 00:11:07;;;;;;;17.23;11.43;;;1.50;1.00;;;;;;5092341;28;20200;-84
2022/11/18 00:16:19;;;;;;;21.77;14.03;;;1.40;1.00;;;;;;5092031;28;20234;-85
2022/11/18 00:18:46;;;;;;;21.37;13.33;;;1.40;1.00;;;;;;5092830;28;20254;-84
2022/11/18 00:21:14;;;;;;;23.50;14.00;;;1.40;1.00;;;;;;5096368;28;20213;-84
2022/11/18 00:23:41;;;;;;;24.13;14.47;;;1.30;1.00;;;;;;5095729;28;20196;-82
2022/11/18 00:26:12;;;;;;;21.63;14.40;;;1.30;1.00;;;;;;5096209;28;20579;-84
2022/11/18 00:28:40;;;;;;;21.90;14.33;;;1.30;1.00;;;;;;5095152;28;20661;-84
2022/11/18 00:31:09;;;;;;;25.73;16.47;;;1.30;1.00;;;;;;5095630;28;20664;-84
2022/11/18 00:33:36;;;;;;;24.63;15.70;;;1.30;1.00;;;;;;5095499;28;20258;-84
2022/11/18 00:36:04;;;;;;;19.17;12.43;;;1.30;1.00;;;;;;5095552;28;20200;-84
2022/11/18 00:38:31;;;;;;;23.47;14.13;;;1.30;1.00;;;;;;5095702;28;20197;-87
2022/11/18 00:41:01;;;;;;;23.17;14.60;;;1.30;1.00;;;;;;5095391;28;20192;-84
2022/11/18 00:43:29;;;;;;;22.70;13.03;;;1.30;1.00;;;;;;5095834;28;20192;-83
2022/11/18 00:45:56;;;;;;;22.47;15.00;;;1.30;1.00;;;;;;5095152;28;20193;-84
2022/11/18 00:48:24;;;;;;;24.33;15.50;;;1.30;1.00;;;;;;5087534;28;20190;-84
2022/11/18 00:50:52;;;;;;;22.07;14.07;;;1.30;1.00;;;;;;5087626;28;20272;-84
2022/11/18 00:53:21;;;;;;;22.70;13.93;;;1.30;1.00;;;;;;5095319;28;20291;-83
2022/11/18 00:55:48;;;;;;;17.27;9.60;;;1.20;1.00;;;;;;5095676;28;20199;-84
2022/11/18 00:58:15;;;;;;;25.63;14.47;;;1.20;1.00;;;;;;5095165;28;20199;-84
2022/11/18 01:00:45;;;;;;;23.20;14.87;;;1.20;1.00;;;;;;5083854;28;20196;-84
2022/11/18 01:03:12;;;;;;;22.93;14.70;;;1.20;3.40;;;;;;5090461;28;20610;-84
2022/11/18 01:05:40;;;;;;;22.90;14.47;;;1.20;1.00;;;;;;5094713;28;20211;-87
2022/11/18 01:08:09;;;;;;;19.53;11.83;;;1.20;1.00;;;;;;5095465;28;20194;-84
2022/11/18 01:10:37;;;;;;;24.03;14.00;;;1.20;5.70;;;;;;5095359;28;20245;-84
2022/11/18 01:13:18;;;;;;;21.80;14.10;;;1.20;1.00;;;;;;5095239;28;20662;-84
2022/11/18 01:15:49;;;;;;;22.17;12.53;;;1.20;1.60;;;;;;5082031;28;20188;-85
2022/11/18 01:18:17;;;;;;;23.00;13.77;;;1.20;14.60;;;;;;5095577;28;20192;-83
2022/11/18 01:20:44;;;;;;;21.87;14.07;;;1.30;26.80;;;;;;5080864;28;20200;-84
2022/11/18 01:23:11;;;;;;;21.93;12.57;;;1.30;21.30;;;;;;5094879;28;20193;-84
2022/11/18 01:25:40;;;;;;;23.60;15.30;;;1.30;1.00;;;;;;5094520;28;20196;-85
2022/11/18 01:28:08;;;;;;;19.40;10.40;;;1.30;1.00;;;;;;5094558;28;20192;-84
2022/11/18 01:30:35;;;;;;;23.60;14.40;;;1.30;4.00;;;;;;5093768;28;20229;-84
2022/11/18 01:33:05;;;;;;;20.27;11.97;;;1.30;1.00;;;;;;5095005;28;20532;-86
2022/11/18 01:35:35;;;;;;;24.83;14.53;;;1.30;5.80;;;;;;5094405;28;20199;-84
2022/11/18 01:38:02;;;;;;;25.47;14.37;;;1.20;7.60;;;;;;5095002;28;20226;-83
2022/11/18 01:40:30;;;;;;;24.87;14.90;;;1.20;5.90;;;;;;5094165;28;20193;-85
2022/11/18 01:42:57;;;;;;;23.17;14.07;;;1.20;38.50;;;;;;5094319;28;20556;-84
2022/11/18 01:45:32;;;;;;;24.13;15.07;;;1.20;56.60;;;;;;5094369;28;20196;-84
2022/11/18 01:48:07;;;;;;;28.33;16.37;;;1.20;48.10;;;;;;5077988;28;20232;-83
2022/11/18 01:50:38;;;;;;;29.83;16.00;;;1.10;2.20;;;;;;5084196;28;20234;-84
2022/11/18 01:53:09;;;;;;;26.73;15.87;;;1.00;1.00;;;;;;5094400;28;20241;-85
2022/11/18 01:55:41;;;;;;;22.30;13.07;;;0.90;1.00;;;;;;5094175;28;20195;-84
2022/11/18 01:58:14;;;;;;;23.43;14.80;;;0.80;1.00;;;;;;5094129;28;20184;-84
2022/11/18 02:00:42;;;;;;;21.27;13.37;;;0.60;2.90;;;;;;5094688;28;20602;-84
2022/11/18 02:03:10;;;;;;;33.47;16.07;;;0.50;24.80;;;;;;5094173;28;20196;-84
2022/11/18 02:05:40;;;;;;;23.63;14.60;;;0.40;84.60;;;;;;5093408;28;20694;-83
2022/11/18 02:08:08;;;;;;;27.77;16.33;;;0.20;99.90;;;;;;5094118;28;20194;-84
2022/11/18 02:10:35;;;;;;;24.87;15.63;;;0.10;99.90;;;;;;5094230;28;20265;-86
2022/11/18 02:13:02;;;;;;;32.23;18.30;;;0.00;99.90;;;;;;5094725;28;20591;-86
2022/11/18 02:15:45;;;;;;;25.70;16.17;;;-0.10;99.90;;;;;;5094053;28;20195;-84
2022/11/18 02:18:21;;;;;;;26.77;14.83;;;-0.20;99.90;;;;;;5094180;28;20547;-85
2022/11/18 02:20:51;;;;;;;29.83;17.20;;;-0.20;99.90;;;;;;5093800;28;20195;-84
2022/11/18 02:23:59;;;;;;;26.60;14.73;;;-0.30;99.90;;;;;;5094412;28;20192;-85
2022/11/18 02:26:55;;;;;;;32.03;16.87;;;-0.40;99.90;;;;;;5085290;28;20593;-85
2022/11/18 02:29:28;;;;;;;27.50;16.20;;;-0.40;99.90;;;;;;5093508;28;20272;-84
2022/11/18 02:32:00;;;;;;;30.97;16.17;;;-0.50;99.90;;;;;;5085371;28;20188;-85
2022/11/18 02:34:40;;;;;;;32.57;17.63;;;-0.50;99.90;;;;;;5094062;28;20653;-85
2022/11/18 02:37:12;;;;;;;29.20;17.87;;;-0.70;99.90;;;;;;5094005;28;20237;-84
2022/11/18 02:39:44;;;;;;;25.20;15.37;;;-0.60;1.00;;;;;;5088321;28;20188;-84
2022/11/18 02:42:14;;;;;;;30.17;17.47;;;-0.60;1.00;;;;;;5085994;28;20694;-85
2022/11/18 02:44:47;;;;;;;28.90;17.00;;;-0.70;1.00;;;;;;5093748;28;20202;-85
2022/11/18 02:47:16;;;;;;;28.10;16.33;;;-0.70;1.00;;;;;;5093598;28;20198;-88
2022/11/18 02:49:47;;;;;;;25.53;14.30;;;-0.80;1.00;;;;;;5093513;28;20280;-87
2022/11/18 02:52:17;;;;;;;30.33;17.23;;;-0.80;1.00;;;;;;5093746;28;20280;-85
2022/11/18 02:54:47;;;;;;;28.87;16.53;;;-0.90;1.00;;;;;;5093551;28;20713;-85
2022/11/18 02:57:16;;;;;;;27.80;16.67;;;-1.00;1.00;;;;;;5093591;28;20245;-84
2022/11/18 02:59:44;;;;;;;26.17;15.80;;;-1.00;1.00;;;;;;5092873;28;20603;-84
2022/11/18 03:02:16;;;;;;;24.20;14.57;;;-1.00;1.00;;;;;;5093656;28;20194;-85
2022/11/18 03:04:45;;;;;;;25.57;16.63;;;-1.10;1.00;;;;;;5094040;28;20192;-85
2022/11/18 03:07:18;;;;;;;20.53;13.20;;;-1.10;1.00;;;;;;5079246;28;20196;-85
2022/11/18 03:09:49;;;;;;;26.53;13.77;;;-1.10;1.00;;;;;;5087247;28;20211;-86
2022/11/18 03:12:24;;;;;;;29.50;17.37;;;-1.10;1.00;;;;;;5093567;28;20244;-86
2022/11/18 03:15:03;;;;;;;25.93;16.07;;;-1.10;1.00;;;;;;5079935;28;20538;-84
2022/11/18 03:17:40;;;;;;;27.87;14.47;;;-1.10;1.00;;;;;;5093323;28;20198;-84
2022/11/18 03:20:15;;;;;;;26.57;15.27;;;-1.10;1.00;;;;;;5092747;28;20632;-85
2022/11/18 03:22:48;;;;;;;24.77;15.27;;;-1.10;1.00;;;;;;5093256;28;20601;-85
2022/11/18 03:25:21;;;;;;;27.20;16.10;;;-1.20;1.00;;;;;;5093237;28;20256;-85
2022/11/18 03:27:54;;;;;;;26.60;16.23;;;-1.20;1.00;;;;;;5092847;28;20282;-86
2022/11/18 03:30:23;;;;;;;26.57;15.17;;;-1.20;1.00;;;;;;5092582;28;20227;-84
2022/11/18 03:32:56;;;;;;;25.57;14.60;;;-1.20;14.40;;;;;;5093166;28;20187;-84
2022/11/18 03:35:25;;;;;;;24.33;14.80;;;-1.20;53.80;;;;;;5092557;28;20191;-88
2022/11/18 03:37:59;;;;;;;27.57;15.23;;;-1.20;99.90;;;;;;5093145;28;20194;-86
2022/11/18 03:40:29;;;;;;;25.93;15.10;;;-1.20;99.90;;;;;;5086426;28;20238;-85
2022/11/18 03:43:02;;;;;;;25.77;14.73;;;-1.10;99.90;;;;;;5086746;28;20645;-85
2022/11/18 03:45:35;;;;;;;25.77;15.23;;;-1.00;99.90;;;;;;5092761;28;20198;-85
2022/11/18 03:48:09;;;;;;;25.93;14.30;;;-1.00;99.90;;;;;;5093308;28;20187;-84
2022/11/18 03:50:41;;;;;;;24.83;13.90;;;-0.80;99.90;;;;;;5093009;28;20211;-85
2022/11/18 03:53:10;;;;;;;22.10;12.67;;;-0.70;99.90;;;;;;5094319;28;20186;-86
2022/11/18 03:55:41;;;;;;;21.30;12.53;;;-0.60;99.90;;;;;;5096988;28;20195;-85
2022/11/18 03:58:15;;;;;;;23.37;13.03;;;-0.60;99.90;;;;;;5096743;28;20195;-85
2022/11/18 04:00:46;;;;;;;19.67;11.00;;;-0.40;90.40;;;;;;5096723;28;20657;-85
2022/11/18 04:03:14;;;;;;;23.10;14.17;;;-0.30;11.60;;;;;;5096429;28;20232;-85
2022/11/18 04:05:42;;;;;;;20.87;12.67;;;-0.30;1.00;;;;;;5096766;28;20195;-84
2022/11/18 04:08:13;;;;;;;24.00;13.23;;;-0.20;1.00;;;;;;5096917;28;20195;-84
2022/11/18 04:10:46;;;;;;;25.33;13.90;;;-0.10;1.00;;;;;;5097031;28;20252;-84
2022/11/18 04:13:18;;;;;;;23.17;12.33;;;0.00;1.00;;;;;;5097016;28;20641;-86
2022/11/18 04:15:47;;;;;;;22.60;14.50;;;0.10;1.00;;;;;;5096577;28;20187;-85
2022/11/18 04:18:14;;;;;;;17.83;10.97;;;0.20;1.00;;;;;;5096431;28;20248;-85
2022/11/18 04:20:41;;;;;;;23.77;12.73;;;0.20;1.00;;;;;;5096675;28;20199;-85
2022/11/18 04:23:08;;;;;;;20.50;11.83;;;0.30;1.00;;;;;;5096397;28;20601;-85
2022/11/18 04:25:36;;;;;;;23.13;13.23;;;0.30;1.00;;;;;;5096365;28;20656;-86
2022/11/18 04:28:04;;;;;;;19.17;10.50;;;0.40;1.00;;;;;;5096564;28;20191;-85
2022/11/18 04:30:31;;;;;;;16.97;10.30;;;0.40;1.00;;;;;;5096702;28;20227;-85
2022/11/18 04:32:59;;;;;;;21.33;11.43;;;0.40;1.00;;;;;;5091434;28;20192;-85
2022/11/18 04:35:27;;;;;;;20.47;11.20;;;0.40;1.00;;;;;;5087746;28;20195;-84
2022/11/18 04:37:54;;;;;;;22.03;12.70;;;0.50;1.00;;;;;;5096559;28;20565;-85
2022/11/18 04:40:21;;;;;;;17.03;9.97;;;0.50;1.00;;;;;;5089963;28;20192;-87
2022/11/18 04:42:48;;;;;;;18.70;9.77;;;0.50;1.00;;;;;;5095980;28;20203;-85
2022/11/18 04:45:15;;;;;;;16.03;9.00;;;0.50;1.00;;;;;;5095667;28;20241;-86
2022/11/18 04:47:42;;;;;;;17.30;10.60;;;0.50;1.00;;;;;;5096130;28;20195;-85
2022/11/18 04:50:11;;;;;;;16.60;9.77;;;0.50;1.00;;;;;;5095885;28;20244;-85
2022/11/18 04:52:38;;;;;;;18.63;11.23;;;0.40;1.00;;;;;;5095234;28;20719;-86
2022/11/18 04:55:05;;;;;;;18.50;11.23;;;0.40;1.00;;;;;;5095324;28;20207;-85
2022/11/18 04:57:32;;;;;;;17.67;10.47;;;0.40;1.00;;;;;;5095844;28;20196;-87
2022/11/18 04:59:59;;;;;;;15.00;8.33;;;0.40;1.00;;;;;;5095655;28;20207;-86
2022/11/18 05:02:26;;;;;;;16.03;9.80;;;0.50;1.00;;;;;;5095483;28;20195;-84
2022/11/18 05:04:53;;;;;;;16.30;10.03;;;0.40;1.00;;;;;;5094386;28;20719;-85
2022/11/18 05:07:22;;;;;;;14.93;8.67;;;0.40;1.00;;;;;;5095356;28;20195;-84
2022/11/18 05:09:49;;;;;;;14.70;8.27;;;0.40;1.00;;;;;;5095503;28;20200;-84
2022/11/18 05:15:00;;;;;;;12.97;7.90;;;0.40;1.00;;;;;;5095488;28;20202;-86
2022/11/18 05:17:27;;;;;;;14.47;8.40;;;0.40;1.00;;;;;;5095368;28;20199;-84
2022/11/18 05:19:54;;;;;;;12.00;6.87;;;0.40;1.00;;;;;;5095056;28;20645;-85
2022/11/18 05:22:23;;;;;;;12.03;7.60;;;0.40;1.00;;;;;;5095203;28;20199;-84
2022/11/18 05:24:50;;;;;;;10.70;6.10;;;0.40;99.90;;;;;;5095496;28;20636;-85
2022/11/18 05:27:17;;;;;;;13.50;8.37;;;0.40;99.90;;;;;;5094973;28;20199;-85
2022/11/18 05:29:44;;;;;;;11.23;6.53;;;0.40;1.00;;;;;;5095315;28;20633;-85
2022/11/18 05:32:11;;;;;;;10.80;7.23;;;0.40;1.00;;;;;;5082190;28;20211;-84
2022/11/18 05:34:39;;;;;;;14.93;6.97;;;0.40;99.90;;;;;;5093864;28;20272;-85
2022/11/18 05:37:06;;;;;;;10.37;7.03;;;0.30;99.90;;;;;;5095073;28;20195;-85
2022/11/18 05:39:35;;;;;;;11.33;7.77;;;0.30;99.90;;;;;;5094836;28;20187;-87
2022/11/18 05:44:49;;;;;;;10.57;6.80;;;0.40;99.90;;;;;;5094814;28;20194;-84
2022/11/18 05:47:16;;;;;;;9.17;5.57;;;0.30;99.90;;;;;;5094553;28;20192;-85
2022/11/18 05:49:43;;;;;;;9.90;7.03;;;0.30;99.90;;;;;;5094542;28;20199;-84
2022/11/18 05:52:10;;;;;;;11.53;7.33;;;0.30;99.90;;;;;;5094445;28;20211;-84
2022/11/18 05:54:44;;;;;;;9.70;6.60;;;0.30;99.90;;;;;;5094941;28;20532;-83
2022/11/18 05:57:11;;;;;;;12.57;7.77;;;0.30;99.90;;;;;;5080455;28;20179;-84
2022/11/18 05:59:38;;;;;;;10.13;6.87;;;0.30;99.90;;;;;;5094372;28;20255;-84
2022/11/18 06:02:11;;;;;;;10.30;7.13;;;0.30;99.90;;;;;;5094475;28;20195;-84
2022/11/18 06:04:42;;;;;;;9.50;7.20;;;0.30;99.90;;;;;;5094734;28;20183;-85
2022/11/18 06:07:12;;;;;;;10.30;6.97;;;0.30;99.90;;;;;;5093601;28;20244;-84
2022/11/18 06:09:45;;;;;;;9.63;6.73;;;0.30;99.90;;;;;;5094943;28;20199;-92
2022/11/18 06:12:16;;;;;;;13.17;8.23;;;0.30;99.90;;;;;;5099841;28;20565;-85
2022/11/18 06:14:48;;;;;;;12.80;7.73;;;0.30;99.90;;;;;;5095057;28;20245;-88
2022/11/18 06:17:20;;;;;;;11.03;7.90;;;0.30;99.90;;;;;;5095059;28;20668;-84
2022/11/18 06:19:47;;;;;;;9.37;7.13;;;0.30;99.90;;;;;;5094645;28;20192;-85
2022/11/18 06:22:14;;;;;;;10.77;7.43;;;0.30;99.90;;;;;;5099050;28;20203;-87
2022/11/18 06:24:43;;;;;;;11.70;8.47;;;0.30;99.90;;;;;;5094556;28;20202;-85
2022/11/18 06:27:11;;;;;;;12.37;8.60;;;0.30;99.90;;;;;;5094468;28;20203;-88
2022/11/18 06:29:38;;;;;;;8.83;6.13;;;0.30;99.90;;;;;;5094232;28;20228;-88
2022/11/18 06:32:06;;;;;;;9.47;6.57;;;0.30;99.90;;;;;;5085833;28;20223;-86
2022/11/18 06:34:33;;;;;;;8.80;6.23;;;0.30;99.90;;;;;;5088858;28;20206;-86
2022/11/18 06:37:00;;;;;;;7.97;6.10;;;0.30;96.70;;;;;;5094110;28;20649;-88
2022/11/18 06:39:27;;;;;;;9.30;5.80;;;0.30;13.80;;;;;;5095054;28;20259;-86
2022/11/18 06:41:56;;;;;;;7.17;5.13;;;0.20;26.70;;;;;;5094592;28;20226;-88
2022/11/18 06:44:23;;;;;;;8.67;6.03;;;0.20;40.40;;;;;;5094108;28;20222;-86
2022/11/18 06:46:54;;;;;;;8.00;5.37;;;0.20;5.40;;;;;;5094168;28;20242;-86
2022/11/18 06:49:21;;;;;;;8.77;6.50;;;0.20;19.10;;;;;;5094368;28;20215;-87
2022/11/18 06:51:48;;;;;;;8.57;5.07;;;0.20;1.00;;;;;;5094105;28;20258;-88
2022/11/18 06:54:15;;;;;;;8.43;5.63;;;0.20;1.00;;;;;;5103433;28;20195;-87
2022/11/18 06:56:42;;;;;;;8.23;5.50;;;0.20;1.00;;;;;;5093794;28;20650;-87
2022/11/18 06:59:11;;;;;;;7.27;5.47;;;0.20;1.00;;;;;;5091163;28;20180;-88
2022/11/18 07:01:40;;;;;;;7.93;5.70;;;0.10;1.00;;;;;;5093068;28;20195;-85
2022/11/18 07:04:08;;;;;;;8.47;5.93;;;0.10;1.00;;;;;;5093198;28;20282;-88
2022/11/18 07:06:36;;;;;;;8.53;5.50;;;0.10;1.00;;;;;;5093581;28;20195;-86
2022/11/18 07:09:05;;;;;;;7.73;5.33;;;0.10;1.00;;;;;;5079871;28;20714;-87
2022/11/18 07:11:33;;;;;;;7.90;4.80;;;0.10;1.00;;;;;;5094010;28;20279;-88
2022/11/18 07:14:00;;;;;;;8.40;5.67;;;0.20;1.00;;;;;;5093561;28;20226;-86
2022/11/18 07:16:29;;;;;;;6.20;4.67;;;0.20;1.00;;;;;;5092870;28;20278;-87
2022/11/18 07:18:56;;;;;;;6.77;4.37;;;0.30;1.00;;;;;;5093115;28;20195;-86
2022/11/18 07:21:26;;;;;;;8.73;5.57;;;0.30;1.00;;;;;;5097400;28;20191;-88
2022/11/18 07:23:53;;;;;;;7.83;4.77;;;0.30;1.00;;;;;;5093318;28;20203;-87
2022/11/18 07:26:21;;;;;;;6.60;5.17;;;0.30;1.00;;;;;;5093705;28;20192;-86
2022/11/18 07:28:48;;;;;;;5.93;4.50;;;0.30;1.00;;;;;;5093360;28;20244;-86
2022/11/18 07:31:17;;;;;;;6.30;4.07;;;0.30;1.00;;;;;;5093610;28;20208;-85
2022/11/18 07:33:46;;;;;;;4.27;3.07;;;0.30;1.00;;;;;;5093351;28;20649;-86
2022/11/18 07:36:15;;;;;;;5.43;3.90;;;0.40;1.00;;;;;;5093196;28;20187;-87
2022/11/18 07:38:43;;;;;;;4.07;3.23;;;0.40;1.00;;;;;;5093659;28;20195;-87
2022/11/18 07:41:11;;;;;;;6.10;4.30;;;0.40;1.00;;;;;;5093383;28;20203;-86
2022/11/18 07:43:39;;;;;;;6.13;4.70;;;0.50;1.00;;;;;;5093672;28;20191;-86
2022/11/18 07:46:12;;;;;;;4.93;3.63;;;0.50;1.00;;;;;;5093779;28;20531;-87
2022/11/18 07:48:39;;;;;;;5.87;4.50;;;0.50;1.00;;;;;;5093407;28;20198;-85
2022/11/18 07:51:08;;;;;;;5.87;4.30;;;0.50;1.00;;;;;;5093375;28;20223;-87
2022/11/18 07:53:36;;;;;;;7.87;4.23;;;0.60;1.00;;;;;;5093336;28;20319;-86
2022/11/18 07:56:03;;;;;;;6.63;4.47;;;0.70;1.00;;;;;;5093264;28;20195;-86
2022/11/18 07:58:31;;;;;;;5.60;4.30;;;0.70;1.00;;;;;;5093763;28;20245;-88
2022/11/18 08:00:58;;;;;;;6.90;4.53;;;0.80;1.00;;;;;;5093239;28;20244;-87
2022/11/18 08:03:26;;;;;;;6.30;4.53;;;0.80;1.00;;;;;;5092951;28;20248;-87
2022/11/18 08:05:53;;;;;;;7.33;4.60;;;0.90;1.00;;;;;;5097204;28;20614;-87
2022/11/18 08:08:22;;;;;;;5.57;4.17;;;0.90;1.00;;;;;;5092785;28;20203;-88
2022/11/18 08:10:49;;;;;;;5.87;4.20;;;0.90;1.00;;;;;;5093244;28;20199;-88
2022/11/18 08:13:16;;;;;;;7.47;4.33;;;0.80;1.00;;;;;;5096535;28;20215;-87
2022/11/18 08:15:43;;;;;;;5.53;4.17;;;0.90;1.00;;;;;;5091260;28;20195;-88
2022/11/18 08:18:10;;;;;;;4.50;3.77;;;1.00;1.00;;;;;;5093756;28;20196;-89
2022/11/18 08:20:37;;;;;;;5.20;4.00;;;0.90;1.00;;;;;;5092848;28;20196;-89
2022/11/18 08:23:04;;;;;;;5.27;3.77;;;0.90;1.00;;;;;;5092863;28;20260;-86
2022/11/18 08:25:33;;;;;;;5.63;4.50;;;0.80;1.00;;;;;;5097465;28;20256;-88
2022/11/18 08:28:00;;;;;;;5.17;3.47;;;0.70;1.00;;;;;;5092987;28;20210;-87
2022/11/18 08:30:27;;;;;;;4.43;3.37;;;0.60;1.00;;;;;;5093267;28;20594;-85
2022/11/18 08:32:54;;;;;;;5.03;3.70;;;0.70;1.00;;;;;;5092914;28;20223;-87
2022/11/18 08:35:21;;;;;;;5.10;3.07;;;0.90;1.00;;;;;;5093547;28;20202;-86
2022/11/18 08:37:48;;;;;;;5.07;3.40;;;1.10;1.00;;;;;;5093368;28;20252;-88
2022/11/18 08:40:16;;;;;;;4.87;3.47;;;1.30;1.00;;;;;;5090218;28;20197;-88
2022/11/18 08:42:44;;;;;;;5.23;3.63;;;1.30;99.90;;;;;;5087625;28;20206;-88
2022/11/18 08:45:11;;;;;;;4.97;3.60;;;1.30;99.90;;;;;;5097057;28;20184;-87
2022/11/18 08:47:39;;;;;;;4.77;3.50;;;1.20;99.90;;;;;;5096666;28;20649;-87
2022/11/18 08:50:08;;;;;;;3.90;2.80;;;1.20;99.90;;;;;;5096289;28;20204;-87
2022/11/18 08:52:35;;;;;;;4.93;3.40;;;1.10;99.90;;;;;;5096910;28;20222;-87
2022/11/18 08:55:04;;;;;;;4.97;3.77;;;0.90;99.90;;;;;;5096585;28;20198;-88
2022/11/18 08:57:31;;;;;;;4.23;3.33;;;0.80;99.90;;;;;;5096230;28;20733;-87
2022/11/18 08:59:59;;;;;;;4.83;3.47;;;0.80;1.00;;;;;;5096674;28;20600;-87
2022/11/18 09:02:26;;;;;;;4.70;3.77;;;0.80;1.00;;;;;;5095765;28;20714;-86
2022/11/18 09:04:53;;;;;;;4.50;3.40;;;0.90;1.00;;;;;;5096652;28;20248;-89
2022/11/18 09:07:21;;;;;;;4.93;3.67;;;0.90;1.00;;;;;;5096202;28;20248;-89
2022/11/18 09:09:49;;;;;;;4.87;3.53;;;1.00;1.00;;;;;;5096365;28;20213;-87
2022/11/18 09:12:16;;;;;;;3.97;3.03;;;1.10;1.00;;;;;;5096467;28;20226;-88
2022/11/18 09:14:43;;;;;;;3.90;2.57;;;1.20;1.00;;;;;;5096174;28;20195;-89
2022/11/18 09:17:13;;;;;;;3.97;2.83;;;1.30;99.90;;;;;;5081623;28;20207;-88
2022/11/18 09:19:40;;;;;;;3.33;2.73;;;1.40;99.90;;;;;;5095595;28;20203;-89
2022/11/18 09:22:08;;;;;;;5.63;3.47;;;1.50;99.90;;;;;;5096085;28;20253;-90
2022/11/18 09:24:35;;;;;;;5.10;3.07;;;1.60;99.90;;;;;;5096155;28;20195;-87
2022/11/18 09:27:04;;;;;;;3.37;2.63;;;1.70;99.90;;;;;;5096451;28;20540;-85
2022/11/18 09:29:31;;;;;;;3.77;3.17;;;1.80;99.90;;;;;;5095698;28;20262;-87
2022/11/18 09:32:00;;;;;;;3.83;2.80;;;1.70;99.90;;;;;;5095585;28;20215;-87
2022/11/18 09:34:29;;;;;;;4.27;2.40;;;1.60;99.90;;;;;;5095343;28;20278;-87
2022/11/18 09:36:56;;;;;;;3.97;2.83;;;1.50;99.90;;;;;;5095619;28;20699;-86
2022/11/18 09:39:24;;;;;;;4.27;3.00;;;1.40;99.90;;;;;;5095037;28;20206;-86
2022/11/18 09:41:59;;;;;;;3.40;2.87;;;1.30;99.90;;;;;;5080875;28;20227;-87
2022/11/18 09:44:42;;;;;;;3.07;2.70;;;1.20;99.90;;;;;;5095635;28;20203;-87
2022/11/18 09:47:16;;;;;;;3.07;2.33;;;1.20;99.90;;;;;;5095470;28;20628;-87
2022/11/18 09:49:46;;;;;;;4.10;3.00;;;1.20;99.90;;;;;;5095404;28;20198;-88
2022/11/18 09:52:18;;;;;;;3.00;2.30;;;1.30;99.90;;;;;;5094649;28;20222;-88
2022/11/18 09:54:46;;;;;;;4.47;3.00;;;1.30;99.90;;;;;;5095483;28;20203;-86
2022/11/18 09:57:16;;;;;;;4.13;2.83;;;1.40;99.90;;;;;;5081164;28;20199;-89
2022/11/18 09:59:44;;;;;;;3.43;2.50;;;1.40;99.90;;;;;;5094902;28;20254;-87
2022/11/18 10:02:28;;;;;;;3.87;2.67;;;1.40;99.90;;;;;;5091997;28;20193;-87
2022/11/18 10:05:01;;;;;;;3.67;2.83;;;1.50;99.90;;;;;;5087443;28;20192;-88
2022/11/18 10:07:36;;;;;;;3.23;2.27;;;1.50;99.90;;;;;;5095190;28;20277;-87
2022/11/18 10:10:11;;;;;;;4.13;3.07;;;1.60;99.90;;;;;;5087773;28;20279;-87
2022/11/18 10:12:46;;;;;;;3.53;2.43;;;1.70;99.90;;;;;;5095103;28;20539;-89
2022/11/18 10:15:22;;;;;;;5.63;3.07;;;1.90;99.90;;;;;;5087839;28;20199;-86
2022/11/18 10:17:59;;;;;;;4.67;3.03;;;2.20;99.90;;;;;;5098568;28;20208;-88
2022/11/18 10:20:41;;;;;;;3.00;2.47;;;2.30;99.90;;;;;;5098609;28;20188;-88
2022/11/18 10:23:15;;;;;;;4.67;2.87;;;2.30;99.90;;;;;;5098373;28;20667;-88
2022/11/18 10:25:42;;;;;;;3.97;2.80;;;2.40;99.90;;;;;;5101570;28;20192;-88
2022/11/18 10:28:17;;;;;;;4.07;2.80;;;2.40;99.90;;;;;;5094578;28;20197;-88
2022/11/18 10:30:44;;;;;;;4.47;3.47;;;2.30;99.90;;;;;;5097498;28;20894;-84
2022/11/18 10:33:25;;;;;;;4.10;3.00;;;2.20;99.90;;;;;;5095072;28;20221;-86
2022/11/18 10:36:10;;;;;;;3.77;2.73;;;2.20;99.90;;;;;;5098472;28;20196;-86
2022/11/18 10:38:38;;;;;;;3.47;2.83;;;2.20;99.90;;;;;;5094510;28;20287;-86
2022/11/18 10:41:09;;;;;;;4.43;2.90;;;2.20;99.90;;;;;;5086693;28;20177;-87
2022/11/18 10:43:48;;;;;;;3.60;2.80;;;2.20;99.90;;;;;;5096833;28;20180;-86
2022/11/18 10:46:25;;;;;;;5.47;3.23;;;2.20;99.90;;;;;;5085479;28;20592;-88
2022/11/18 10:49:15;;;;;;;4.10;2.53;;;2.20;99.90;;;;;;5098708;28;20197;-85
2022/11/18 10:51:45;;;;;;;3.57;2.80;;;2.30;99.90;;;;;;5089492;28;20174;-87
2022/11/18 10:54:16;;;;;;;4.33;3.30;;;2.30;99.90;;;;;;5084174;28;20197;-87
2022/11/18 10:56:52;;;;;;;3.70;2.87;;;2.40;99.90;;;;;;5093658;28;20197;-87
2022/11/18 10:59:32;;;;;;;4.70;3.07;;;2.40;99.90;;;;;;5098221;28;20201;-88
2022/11/18 11:02:01;;;;;;;4.13;2.97;;;2.40;99.90;;;;;;5094114;28;20269;-88
2022/11/18 11:04:29;;;;;;;4.97;3.50;;;2.30;99.90;;;;;;5101344;28;20197;-88
2022/11/18 11:06:58;;;;;;;4.27;3.00;;;2.20;99.90;;;;;;5097776;28;20204;-86
2022/11/18 11:09:31;;;;;;;4.07;2.90;;;2.30;99.90;;;;;;5098163;28;20211;-86
2022/11/18 11:12:02;;;;;;;5.60;3.47;;;2.30;99.90;;;;;;5096737;28;20262;-86
2022/11/18 11:14:36;;;;;;;4.23;3.03;;;2.40;99.90;;;;;;5100347;28;20562;-88
2022/11/18 11:17:09;;;;;;;4.20;2.97;;;2.50;99.90;;;;;;5088845;28;20201;-88
2022/11/18 11:19:52;;;;;;;4.53;3.10;;;2.50;99.90;;;;;;5083288;28;20203;-88
2022/11/18 11:22:20;;;;;;;4.43;2.50;;;2.60;99.90;;;;;;5097416;28;20613;-87
2022/11/18 11:24:47;;;;;;;4.23;3.20;;;2.60;99.90;;;;;;5094456;28;20201;-86
2022/11/18 11:27:31;;;;;;;4.67;2.90;;;2.60;99.90;;;;;;5097716;28;20201;-87
2022/11/18 11:30:09;;;;;;;4.33;2.97;;;2.60;99.90;;;;;;5093806;28;20247;-87
2022/11/18 11:33:18;;;;;;;4.03;2.40;;;2.60;99.90;;;;;;5098213;28;20221;-89
2022/11/18 11:35:51;;;;;;;4.43;2.80;;;2.60;99.90;;;;;;5062173;28;20189;-86
2022/11/18 11:38:29;;;;;;;4.07;2.43;;;2.60;99.90;;;;;;5101534;28;20206;-85
2022/11/18 11:41:10;;;;;;;4.13;2.73;;;2.60;99.90;;;;;;5088902;28;20199;-85
2022/11/18 11:43:49;;;;;;;3.70;2.40;;;2.60;99.90;;;;;;5089191;28;20599;-86
2022/11/18 11:46:28;;;;;;;3.73;2.30;;;2.60;99.90;;;;;;5088356;28;20555;-89
2022/11/18 11:49:10;;;;;;;4.27;2.67;;;2.50;99.90;;;;;;5098091;28;20254;-85
2022/11/18 11:51:47;;;;;;;4.67;2.60;;;2.60;99.90;;;;;;5098700;28;20198;-89
2022/11/18 11:54:38;;;;;;;3.40;2.40;;;2.70;99.90;;;;;;5089529;28;20239;-86
2022/11/18 11:57:11;;;;;;;2.57;1.90;;;2.70;99.90;;;;;;5097531;28;20189;-87
2022/11/18 11:59:46;;;;;;;1.67;1.40;;;2.80;88.50;;;;;;5100779;28;20206;-87
2022/11/18 12:02:48;;;;;;;2.63;1.47;;;2.70;66.50;;;;;;5093419;28;20197;-88
2022/11/18 12:05:25;;;;;;;2.43;1.60;;;2.60;47.70;;;;;;5088094;28;20197;-87
2022/11/18 12:07:56;;;;;;;2.33;1.70;;;2.50;37.40;;;;;;5097477;28;20201;-87
2022/11/18 12:10:30;;;;;;;2.50;1.50;;;2.60;44.40;;;;;;5093478;28;20234;-87
2022/11/18 12:13:11;;;;;;;2.83;1.80;;;2.70;52.70;;;;;;5099436;28;20206;-86
2022/11/18 12:15:51;;;;;;;2.40;1.70;;;2.90;28.10;;;;;;5109502;28;20217;-86
2022/11/18 12:18:24;;;;;;;3.60;1.87;;;3.00;18.90;;;;;;5102270;28;20209;-87
2022/11/18 12:20:54;;;;;;;2.37;1.70;;;3.10;16.90;;;;;;5092917;28;20194;-91
2022/11/18 12:23:23;;;;;;;2.27;1.77;;;3.10;9.30;;;;;;5101706;28;20213;-88
2022/11/18 12:26:01;;;;;;;2.50;1.80;;;3.00;4.00;;;;;;5086388;28;20187;-90
2022/11/18 12:28:34;;;;;;;2.87;1.80;;;2.90;1.00;;;;;;5100679;28;20209;-84
2022/11/18 12:31:31;;;;;;;2.70;1.80;;;2.70;1.40;;;;;;5096669;28;20224;-88
2022/11/18 12:34:00;;;;;;;2.70;1.80;;;2.50;1.00;;;;;;5104857;28;20204;-89
2022/11/18 12:36:29;;;;;;;2.47;1.50;;;2.40;1.00;;;;;;5106016;28;20197;-87
2022/11/18 12:38:56;;;;;;;2.23;1.67;;;2.30;1.00;;;;;;5104040;28;20209;-88
2022/11/18 12:44:38;;;;;;;2.37;1.73;;;2.10;8.00;;;;;;5090355;28;20710;-89
2022/11/18 12:47:07;;;;;;;3.47;1.63;;;2.00;10.50;;;;;;5103904;28;20220;-91
2022/11/18 12:50:08;;;;;;;2.10;1.50;;;2.00;16.50;;;;;;5088692;28;20272;-88
2022/11/18 12:52:52;;;;;;;2.37;1.90;;;2.10;29.90;;;;;;5078474;28;20666;-87
2022/11/18 12:55:40;;;;;;;2.50;1.43;;;2.20;25.80;;;;;;5082182;28;20266;-88
2022/11/18 12:58:23;;;;;;;2.37;1.60;;;2.50;30.20;;;;;;5096882;28;20201;-88
2022/11/18 13:00:53;;;;;;;1.87;1.40;;;2.70;29.40;;;;;;5096793;28;20200;-88
2022/11/18 13:03:31;;;;;;;3.70;1.70;;;3.00;17.40;;;;;;5100569;28;20174;-88
2022/11/18 13:06:02;;;;;;;3.50;1.60;;;3.00;11.40;;;;;;5100570;28;20189;-88
2022/11/18 13:08:29;;;;;;;3.20;1.50;;;3.00;11.60;;;;;;5096807;28;20190;-88
2022/11/18 13:13:46;;;;;;;2.20;1.60;;;3.10;15.60;;;;;;5095881;28;20210;-86
2022/11/18 13:19:03;;;;;;;2.10;1.33;;;3.10;10.40;;;;;;5096069;28;20201;-88
2022/11/18 13:24:16;;;;;;;2.63;1.50;;;3.10;10.30;;;;;;5096618;28;20668;-87
2022/11/18 13:26:45;;;;;;;1.93;1.53;;;3.10;9.50;;;;;;5095488;28;20195;-87
2022/11/18 13:29:25;;;;;;;2.70;1.30;;;3.10;13.10;;;;;;5095888;28;20221;-89
2022/11/18 13:32:02;;;;;;;2.10;1.47;;;3.20;11.60;;;;;;5095922;28;20197;-87